Time;durP1;ratioP1;P1;durP2;ratioP2;P2;SDS_P1;SDS_P2;PMS_P1;PMS_P2;Temp;Humidity;BMP_temperature;BMP_pressure;BME280_temperature;BME280_humidity;BME280_pressure;Samples;Min_cycle;Max_cycle;Signal;HPM_P1;HPM_P2
2023/02/18 00:01:29;;;;;;;53.60;25.70;;;;;;;-128.00;-1.00;-1.00;105046;1254;1011975;-49
2023/02/18 00:03:58;;;;;;;59.80;27.80;;;;;;;-128.00;-1.00;-1.00;102424;1257;1012468;-49
2023/02/18 00:06:28;;;;;;;57.20;27.60;;;;;;;-128.00;-1.00;-1.00;105021;1254;1010857;-47
2023/02/18 00:09:00;;;;;;;55.40;26.80;;;;;;;-128.00;-1.00;-1.00;106441;1254;1011365;-49
2023/02/18 00:11:30;;;;;;;54.30;26.30;;;;;;;-128.00;-1.00;-1.00;103964;1254;1012597;-50
2023/02/18 00:14:00;;;;;;;55.30;27.90;;;;;;;-128.00;-1.00;-1.00;106472;1254;1013247;-49
2023/02/18 00:16:29;;;;;;;50.00;22.80;;;;;;;-128.00;-1.00;-1.00;106433;1254;1013237;-51
2023/02/18 00:18:58;;;;;;;62.30;27.00;;;;;;;-128.00;-1.00;-1.00;106370;1254;1011000;-48
2023/02/18 00:21:26;;;;;;;59.20;27.40;;;;;;;-128.00;-1.00;-1.00;103263;1257;1010985;-48
2023/02/18 00:23:54;;;;;;;58.60;27.90;;;;;;;-128.00;-1.00;-1.00;106437;1254;1002437;-52
2023/02/18 00:26:22;;;;;;;61.90;29.00;;;;;;;-128.00;-1.00;-1.00;106468;1254;1002341;-52
2023/02/18 00:28:51;;;;;;;67.50;30.60;;;;;;;-128.00;-1.00;-1.00;105467;1254;1013501;-47
2023/02/18 00:31:25;;;;;;;63.80;30.50;;;;;;;-128.00;-1.00;-1.00;106402;1253;1010106;-49
2023/02/18 00:33:53;;;;;;;66.10;29.10;;;;;;;-128.00;-1.00;-1.00;106472;1254;1011862;-50
2023/02/18 00:36:21;;;;;;;61.90;29.10;;;;;;;-128.00;-1.00;-1.00;106437;1254;1002398;-48
2023/02/18 00:38:53;;;;;;;59.90;29.60;;;;;;;-128.00;-1.00;-1.00;104306;1257;1002180;-50
2023/02/18 00:41:23;;;;;;;66.00;32.20;;;;;;;-128.00;-1.00;-1.00;102140;1261;1013345;-52
2023/02/18 00:43:51;;;;;;;62.40;30.30;;;;;;;-128.00;-1.00;-1.00;104531;1258;1010078;-49
2023/02/18 00:46:20;;;;;;;66.90;30.40;;;;;;;-128.00;-1.00;-1.00;102725;1257;1011296;-48
2023/02/18 00:48:48;;;;;;;63.40;31.00;;;;;;;-128.00;-1.00;-1.00;103129;1257;1013260;-50
2023/02/18 00:51:16;;;;;;;64.50;29.20;;;;;;;-128.00;-1.00;-1.00;106403;1254;1012689;-50
2023/02/18 00:53:48;;;;;;;63.90;29.70;;;;;;;-128.00;-1.00;-1.00;104989;1255;1013084;-48
2023/02/18 00:56:16;;;;;;;59.90;28.00;;;;;;;-128.00;-1.00;-1.00;105353;1257;1010019;-48
2023/02/18 00:58:51;;;;;;;67.10;31.20;;;;;;;-128.00;-1.00;-1.00;102297;1257;1011050;-49
2023/02/18 01:01:19;;;;;;;67.90;33.10;;;;;;;-128.00;-1.00;-1.00;102153;1254;1012657;-51
2023/02/18 01:03:47;;;;;;;57.30;28.20;;;;;;;-128.00;-1.00;-1.00;102377;1254;1002425;-48
2023/02/18 01:06:15;;;;;;;70.30;32.80;;;;;;;-128.00;-1.00;-1.00;102418;1257;1002806;-49
2023/02/18 01:08:43;;;;;;;68.80;34.10;;;;;;;-128.00;-1.00;-1.00;102312;1259;1010949;-48
2023/02/18 01:11:12;;;;;;;60.10;31.20;;;;;;;-128.00;-1.00;-1.00;106222;1254;1011113;-50
2023/02/18 01:13:40;;;;;;;61.30;29.00;;;;;;;-128.00;-1.00;-1.00;106364;1254;1013075;-49
2023/02/18 01:16:08;;;;;;;63.40;31.00;;;;;;;-128.00;-1.00;-1.00;102651;1254;1002733;-47
2023/02/18 01:18:38;;;;;;;66.20;30.50;;;;;;;-128.00;-1.00;-1.00;106412;1253;1013059;-49
2023/02/18 01:21:07;;;;;;;61.10;30.70;;;;;;;-128.00;-1.00;-1.00;106251;1254;1009798;-50
2023/02/18 01:23:36;;;;;;;64.50;32.10;;;;;;;-128.00;-1.00;-1.00;106391;1253;1010788;-50
2023/02/18 01:26:04;;;;;;;68.90;34.40;;;;;;;-128.00;-1.00;-1.00;106476;1254;1012497;-49
2023/02/18 01:28:32;;;;;;;70.90;35.20;;;;;;;-128.00;-1.00;-1.00;106441;1254;1012344;-49
2023/02/18 01:31:06;;;;;;;65.20;33.10;;;;;;;-128.00;-1.00;-1.00;106449;1253;1012689;-50
2023/02/18 01:33:37;;;;;;;60.10;29.10;;;;;;;-128.00;-1.00;-1.00;103988;1259;1010111;-49
2023/02/18 01:36:05;;;;;;;56.10;27.70;;;;;;;-128.00;-1.00;-1.00;106423;1254;1010910;-50
2023/02/18 01:38:34;;;;;;;61.60;28.50;;;;;;;-128.00;-1.00;-1.00;106459;1253;1012593;-53
2023/02/18 01:41:02;;;;;;;52.30;26.90;;;;;;;-128.00;-1.00;-1.00;106386;1254;1002362;-50
2023/02/18 01:43:30;;;;;;;59.10;32.20;;;;;;;-128.00;-1.00;-1.00;102774;1254;1002669;-47
2023/02/18 01:45:59;;;;;;;55.60;30.00;;;;;;;-128.00;-1.00;-1.00;102295;1257;1002555;-52
2023/02/18 01:48:31;;;;;;;64.40;31.20;;;;;;;-128.00;-1.00;-1.00;106375;1254;1011140;-50
2023/02/18 01:51:12;;;;;;;59.30;29.90;;;;;;;-128.00;-1.00;-1.00;105701;1255;1013747;-49
2023/02/18 01:53:45;;;;;;;62.90;29.60;;;;;;;-128.00;-1.00;-1.00;105335;1257;1012529;-48
2023/02/18 01:56:19;;;;;;;63.70;29.50;;;;;;;-128.00;-1.00;-1.00;102182;1258;1012822;-52
2023/02/18 01:58:47;;;;;;;55.20;28.00;;;;;;;-128.00;-1.00;-1.00;106157;1254;1010514;-50
2023/02/18 02:01:16;;;;;;;53.40;28.90;;;;;;;-128.00;-1.00;-1.00;103838;1256;1010882;-48
2023/02/18 02:03:43;;;;;;;52.40;27.40;;;;;;;-128.00;-1.00;-1.00;102199;1254;1003728;-49
2023/02/18 02:06:18;;;;;;;59.40;30.20;;;;;;;-128.00;-1.00;-1.00;102126;1258;1004183;-50
2023/02/18 02:08:50;;;;;;;50.80;26.10;;;;;;;-128.00;-1.00;-1.00;103768;1254;1012928;-51
2023/02/18 02:11:22;;;;;;;49.60;27.00;;;;;;;-128.00;-1.00;-1.00;106279;1254;1010554;-50
2023/02/18 02:14:03;;;;;;;49.00;25.10;;;;;;;-128.00;-1.00;-1.00;106253;1254;1011490;-49
2023/02/18 02:17:02;;;;;;;48.80;25.50;;;;;;;-128.00;-1.00;-1.00;105149;1254;1012517;-48
2023/02/18 02:19:53;;;;;;;45.20;23.60;;;;;;;-128.00;-1.00;-1.00;102039;1256;1012759;-51
2023/02/18 02:22:50;;;;;;;48.90;25.70;;;;;;;-128.00;-1.00;-1.00;102195;1257;1013670;-50
2023/02/18 02:25:26;;;;;;;45.20;22.00;;;;;;;-128.00;-1.00;-1.00;106228;1254;1011813;-49
2023/02/18 02:28:26;;;;;;;42.90;23.40;;;;;;;-128.00;-1.00;-1.00;105264;1254;1011423;-47
2023/02/18 02:31:08;;;;;;;49.40;25.00;;;;;;;-128.00;-1.00;-1.00;106192;1254;1013988;-52
2023/02/18 02:33:43;;;;;;;44.00;22.30;;;;;;;-128.00;-1.00;-1.00;106147;1254;1012055;-50
2023/02/18 02:36:53;;;;;;;46.90;23.90;;;;;;;-128.00;-1.00;-1.00;106143;1256;1013609;-50
2023/02/18 02:39:36;;;;;;;42.70;22.10;;;;;;;-128.00;-1.00;-1.00;105991;1254;1010802;-51
2023/02/18 02:42:11;;;;;;;39.60;20.70;;;;;;;-128.00;-1.00;-1.00;106119;1254;1010823;-52
2023/02/18 02:44:42;;;;;;;43.00;23.60;;;;;;;-128.00;-1.00;-1.00;106129;1254;1013290;-51
2023/02/18 02:47:18;;;;;;;47.80;25.90;;;;;;;-128.00;-1.00;-1.00;106236;1254;1012490;-50
2023/02/18 02:49:56;;;;;;;45.50;24.70;;;;;;;-128.00;-1.00;-1.00;106123;1254;1013998;-49
2023/02/18 02:52:48;;;;;;;47.10;24.80;;;;;;;-128.00;-1.00;-1.00;104423;1254;1010024;-47
2023/02/18 02:55:16;;;;;;;42.80;23.30;;;;;;;-128.00;-1.00;-1.00;102493;1257;1011341;-51
2023/02/18 02:57:46;;;;;;;47.70;24.90;;;;;;;-128.00;-1.00;-1.00;102517;1254;1016209;-53
2023/02/18 03:00:28;;;;;;;44.20;23.70;;;;;;;-128.00;-1.00;-1.00;106397;1254;1012411;-54
2023/02/18 03:03:14;;;;;;;40.80;21.70;;;;;;;-128.00;-1.00;-1.00;106297;1254;1012638;-53
2023/02/18 03:05:53;;;;;;;42.20;21.30;;;;;;;-128.00;-1.00;-1.00;102638;1254;1010515;-50
2023/02/18 03:08:37;;;;;;;49.40;25.60;;;;;;;-128.00;-1.00;-1.00;102422;1254;1013426;-52
2023/02/18 03:11:08;;;;;;;44.50;21.60;;;;;;;-128.00;-1.00;-1.00;102452;1254;1013545;-52
2023/02/18 03:13:43;;;;;;;50.10;25.10;;;;;;;-128.00;-1.00;-1.00;102177;1260;1011893;-52
2023/02/18 03:16:26;;;;;;;44.80;24.00;;;;;;;-128.00;-1.00;-1.00;102249;1254;1015715;-51
2023/02/18 03:18:58;;;;;;;42.70;22.10;;;;;;;-128.00;-1.00;-1.00;106401;1254;1010746;-50
2023/02/18 03:21:32;;;;;;;49.50;25.80;;;;;;;-128.00;-1.00;-1.00;106231;1254;1011083;-47
2023/02/18 03:24:06;;;;;;;43.20;22.80;;;;;;;-128.00;-1.00;-1.00;102728;1254;1012223;-51
2023/02/18 03:26:36;;;;;;;45.20;23.90;;;;;;;-128.00;-1.00;-1.00;106255;1254;1012955;-53
2023/02/18 03:29:04;;;;;;;44.60;24.50;;;;;;;-128.00;-1.00;-1.00;103217;1254;1013368;-49
2023/02/18 03:31:37;;;;;;;47.80;26.60;;;;;;;-128.00;-1.00;-1.00;102115;1260;1010585;-51
2023/02/18 03:34:09;;;;;;;35.80;19.70;;;;;;;-128.00;-1.00;-1.00;106222;1254;1011567;-53
2023/02/18 03:36:37;;;;;;;41.40;22.70;;;;;;;-128.00;-1.00;-1.00;106147;1254;1013360;-54
2023/02/18 03:39:08;;;;;;;44.40;23.30;;;;;;;-128.00;-1.00;-1.00;106107;1254;1012034;-53
2023/02/18 03:41:36;;;;;;;42.40;24.30;;;;;;;-128.00;-1.00;-1.00;103076;1254;1012850;-53
2023/02/18 03:44:06;;;;;;;47.80;24.90;;;;;;;-128.00;-1.00;-1.00;103636;1257;1010600;-53
2023/02/18 03:46:34;;;;;;;39.60;21.30;;;;;;;-128.00;-1.00;-1.00;102197;1257;1011369;-52
2023/02/18 03:49:03;;;;;;;38.60;21.00;;;;;;;-128.00;-1.00;-1.00;102255;1254;1012991;-53
2023/02/18 03:51:31;;;;;;;48.10;24.40;;;;;;;-128.00;-1.00;-1.00;106278;1253;1002811;-54
2023/02/18 03:53:59;;;;;;;39.30;21.40;;;;;;;-128.00;-1.00;-1.00;106378;1254;1013791;-51
2023/02/18 03:56:27;;;;;;;41.50;22.80;;;;;;;-128.00;-1.00;-1.00;102606;1254;1002944;-51
2023/02/18 03:58:55;;;;;;;33.50;18.30;;;;;;;-128.00;-1.00;-1.00;102420;1257;1003839;-52
2023/02/18 04:01:23;;;;;;;35.90;18.90;;;;;;;-128.00;-1.00;-1.00;106448;1255;1003241;-54
2023/02/18 04:03:51;;;;;;;37.40;20.90;;;;;;;-128.00;-1.00;-1.00;106478;1254;1002392;-52
2023/02/18 04:06:21;;;;;;;35.80;20.30;;;;;;;-128.00;-1.00;-1.00;106372;1253;1013676;-51
2023/02/18 04:08:49;;;;;;;33.10;19.80;;;;;;;-128.00;-1.00;-1.00;106484;1254;1010732;-52
2023/02/18 04:11:16;;;;;;;35.40;20.50;;;;;;;-128.00;-1.00;-1.00;106440;1254;1002525;-52
2023/02/18 04:13:44;;;;;;;36.00;20.80;;;;;;;-128.00;-1.00;-1.00;106369;1254;1002695;-51
2023/02/18 04:16:14;;;;;;;36.80;21.00;;;;;;;-128.00;-1.00;-1.00;103274;1254;1013241;-51
2023/02/18 04:18:43;;;;;;;39.80;20.00;;;;;;;-128.00;-1.00;-1.00;102258;1257;1013246;-52
2023/02/18 04:21:11;;;;;;;33.00;17.80;;;;;;;-128.00;-1.00;-1.00;102145;1255;1002861;-52
2023/02/18 04:23:39;;;;;;;31.10;17.80;;;;;;;-128.00;-1.00;-1.00;102224;1254;1002841;-53
2023/02/18 04:26:07;;;;;;;30.50;17.00;;;;;;;-128.00;-1.00;-1.00;102617;1257;1002900;-52
2023/02/18 04:28:36;;;;;;;31.00;16.60;;;;;;;-128.00;-1.00;-1.00;102240;1254;1014582;-53
2023/02/18 04:31:04;;;;;;;32.60;16.70;;;;;;;-128.00;-1.00;-1.00;102167;1254;1003128;-51
2023/02/18 04:33:32;;;;;;;26.70;17.10;;;;;;;-128.00;-1.00;-1.00;104432;1255;1010422;-52
2023/02/18 04:36:00;;;;;;;32.50;16.90;;;;;;;-128.00;-1.00;-1.00;102258;1254;1003463;-49
2023/02/18 04:38:29;;;;;;;36.90;17.40;;;;;;;-128.00;-1.00;-1.00;102227;1254;1013308;-52
2023/02/18 04:40:57;;;;;;;27.00;15.60;;;;;;;-128.00;-1.00;-1.00;102165;1256;1003597;-50
2023/02/18 04:43:26;;;;;;;26.70;15.60;;;;;;;-128.00;-1.00;-1.00;102161;1254;1015760;-51
2023/02/18 04:45:54;;;;;;;26.90;14.10;;;;;;;-128.00;-1.00;-1.00;102232;1257;1002995;-51
2023/02/18 04:48:22;;;;;;;30.30;15.80;;;;;;;-128.00;-1.00;-1.00;102220;1254;1002744;-50
2023/02/18 04:50:50;;;;;;;25.90;14.10;;;;;;;-128.00;-1.00;-1.00;106089;1254;1013789;-52
2023/02/18 04:53:18;;;;;;;23.70;14.00;;;;;;;-128.00;-1.00;-1.00;106292;1254;1002234;-53
2023/02/18 04:55:50;;;;;;;25.20;14.30;;;;;;;-128.00;-1.00;-1.00;106367;1254;1002660;-53
2023/02/18 04:58:19;;;;;;;22.50;13.40;;;;;;;-128.00;-1.00;-1.00;106375;1254;1010194;-53
2023/02/18 05:00:47;;;;;;;27.60;14.60;;;;;;;-128.00;-1.00;-1.00;104992;1258;1011791;-53
2023/02/18 05:03:15;;;;;;;24.30;12.40;;;;;;;-128.00;-1.00;-1.00;106405;1254;1002519;-53
2023/02/18 05:05:44;;;;;;;27.70;14.90;;;;;;;-128.00;-1.00;-1.00;106344;1255;1012445;-54
2023/02/18 05:08:15;;;;;;;25.00;14.40;;;;;;;-128.00;-1.00;-1.00;106365;1254;1013446;-54
2023/02/18 05:10:47;;;;;;;28.70;17.60;;;;;;;-128.00;-1.00;-1.00;102792;1257;1010547;-53
2023/02/18 05:13:15;;;;;;;23.60;14.50;;;;;;;-128.00;-1.00;-1.00;106370;1253;1002483;-53
2023/02/18 05:15:43;;;;;;;26.30;14.10;;;;;;;-128.00;-1.00;-1.00;106443;1254;1002901;-54
2023/02/18 05:18:11;;;;;;;25.00;14.50;;;;;;;-128.00;-1.00;-1.00;106353;1254;1002339;-54
2023/02/18 05:20:39;;;;;;;22.70;12.90;;;;;;;-128.00;-1.00;-1.00;102413;1257;1002454;-52
2023/02/18 05:23:07;;;;;;;24.60;13.90;;;;;;;-128.00;-1.00;-1.00;106296;1254;1003267;-54
2023/02/18 05:25:36;;;;;;;24.40;14.00;;;;;;;-128.00;-1.00;-1.00;106386;1254;1011321;-54
2023/02/18 05:28:06;;;;;;;21.10;12.50;;;;;;;-128.00;-1.00;-1.00;105710;1255;1013017;-54
2023/02/18 05:30:34;;;;;;;19.50;11.90;;;;;;;-128.00;-1.00;-1.00;102209;1254;1012316;-52
2023/02/18 05:33:02;;;;;;;22.90;11.40;;;;;;;-128.00;-1.00;-1.00;102370;1257;1003604;-51
2023/02/18 05:35:31;;;;;;;23.90;11.80;;;;;;;-128.00;-1.00;-1.00;102624;1257;1011233;-50
2023/02/18 05:37:59;;;;;;;22.10;11.90;;;;;;;-128.00;-1.00;-1.00;102215;1257;1010771;-51
2023/02/18 05:40:27;;;;;;;19.40;12.10;;;;;;;-128.00;-1.00;-1.00;102283;1255;1004120;-49
2023/02/18 05:42:55;;;;;;;17.10;10.50;;;;;;;-128.00;-1.00;-1.00;106344;1255;1003097;-53
2023/02/18 05:45:23;;;;;;;18.80;11.10;;;;;;;-128.00;-1.00;-1.00;106103;1254;1002422;-51
2023/02/18 05:47:51;;;;;;;17.30;10.60;;;;;;;-128.00;-1.00;-1.00;102116;1255;1002444;-49
2023/02/18 05:50:18;;;;;;;15.70;10.10;;;;;;;-128.00;-1.00;-1.00;106473;1254;1002212;-53
2023/02/18 05:52:47;;;;;;;17.70;10.70;;;;;;;-128.00;-1.00;-1.00;106367;1254;1012913;-53
2023/02/18 05:56:00;;;;;;;17.00;10.40;;;;;;;3.43;100.00;98430.64;102053;1290;600229;-52
2023/02/18 05:58:28;;;;;;;16.50;10.70;;;;;;;3.43;100.00;98426.58;108404;1267;59553;-53
2023/02/18 06:00:59;;;;;;;15.40;10.80;;;;;;;3.45;100.00;98405.79;108508;1267;60593;-53
2023/02/18 06:03:27;;;;;;;21.30;10.00;;;;;;;3.47;100.00;98406.06;104405;1267;70465;-51
2023/02/18 06:05:55;;;;;;;25.80;11.10;;;;;;;3.50;100.00;98406.62;104381;1270;66419;-53
2023/02/18 06:08:23;;;;;;;22.50;12.10;;;;;;;3.54;100.00;98400.98;108466;1267;73142;-54
2023/02/18 06:10:52;;;;;;;25.00;11.90;;;;;;;3.57;100.00;98398.71;108462;1266;155262;-53
2023/02/18 06:13:19;;;;;;;20.50;10.40;;;;;;;3.61;100.00;98404.94;107322;1264;60720;-51
2023/02/18 06:15:51;;;;;;;26.00;10.80;;;;;;;3.65;100.00;98412.93;108550;1264;72111;-54
2023/02/18 06:18:20;;;;;;;17.00;7.80;;;;;;;3.70;100.00;98396.02;108543;1264;67648;-54
2023/02/18 06:20:48;;;;;;;11.70;7.60;;;;;;;3.75;100.00;98387.29;108570;1263;71425;-54
2023/02/18 06:23:16;;;;;;;17.60;8.80;;;;;;;3.80;100.00;98388.32;108565;1264;61785;-54
2023/02/18 06:25:44;;;;;;;14.60;7.90;;;;;;;3.88;100.00;98386.23;108534;1263;58381;-53
2023/02/18 06:28:14;;;;;;;14.20;9.40;;;;;;;3.97;100.00;98384.25;108659;1264;73196;-53
2023/02/18 06:30:43;;;;;;;13.70;8.60;;;;;;;4.03;100.00;98377.55;106232;1266;66357;-52
2023/02/18 06:33:11;;;;;;;10.60;6.70;;;;;;;4.10;100.00;98376.90;106253;1260;72973;-53
2023/02/18 06:35:40;;;;;;;9.00;5.70;;;;;;;4.16;100.00;98369.21;108809;1256;62713;-54
2023/02/18 06:38:08;;;;;;;9.90;6.20;;;;;;;4.23;100.00;98366.23;108850;1256;58284;-54
2023/02/18 06:40:36;;;;;;;6.40;4.90;;;;;;;4.28;100.00;98365.80;108733;1258;70921;-53
2023/02/18 06:43:05;;;;;;;7.10;4.50;;;;;;;4.35;100.00;98364.40;108853;1257;67532;-54
2023/02/18 06:45:33;;;;;;;4.50;2.90;;;;;;;4.40;100.00;98357.95;108968;1257;72366;-53
2023/02/18 06:48:01;;;;;;;5.70;4.30;;;;;;;4.47;100.00;98353.36;108983;1257;61457;-54
2023/02/18 06:50:30;;;;;;;3.20;2.70;;;;;;;4.58;100.00;98348.80;107250;1260;59499;-54
2023/02/18 06:52:58;;;;;;;3.70;2.90;;;;;;;4.68;100.00;98347.80;104810;1263;72512;-52
2023/02/18 06:55:26;;;;;;;3.00;2.50;;;;;;;4.78;100.00;98340.39;108915;1257;66513;-54
2023/02/18 06:57:54;;;;;;;4.20;2.20;;;;;;;4.89;100.00;98337.20;108893;1260;70627;-53
2023/02/18 07:00:22;;;;;;;2.70;2.30;;;;;;;5.01;100.00;98337.33;108833;1260;61251;-54
2023/02/18 07:02:50;;;;;;;4.60;2.80;;;;;;;5.13;100.00;98334.81;108951;1260;59018;-54
2023/02/18 07:05:18;;;;;;;3.80;2.80;;;;;;;5.26;100.00;98333.78;108982;1257;72431;-53
2023/02/18 07:07:47;;;;;;;2.10;1.90;;;;;;;5.42;100.00;98336.03;108863;1256;68064;-54
2023/02/18 07:10:15;;;;;;;3.70;1.80;;;;;;;5.58;100.00;98335.39;106504;1258;72975;-51
2023/02/18 07:12:47;;;;;;;2.20;2.00;;;;;;;5.75;100.00;98335.04;104631;1260;62949;-53
2023/02/18 07:15:16;;;;;;;3.70;2.50;;;;;;;5.89;100.00;98341.12;104761;1257;61568;-51
2023/02/18 07:17:44;;;;;;;3.30;2.20;;;;;;;6.01;100.00;98352.97;108094;1260;72436;-53
2023/02/18 07:20:12;;;;;;;5.30;2.80;;;;;;;6.07;100.00;98355.99;108888;1260;66496;-53
2023/02/18 07:22:40;;;;;;;3.40;2.60;;;;;;;6.10;100.00;98365.85;108908;1258;71417;-53
2023/02/18 07:25:08;;;;;;;2.30;1.80;;;;;;;6.11;100.00;98369.38;108907;1257;60681;-54
2023/02/18 07:27:36;;;;;;;1.80;1.10;;;;;;;6.10;100.00;98378.30;106917;1257;61869;-53
2023/02/18 07:30:05;;;;;;;0.90;0.70;;;;;;;6.10;100.00;98394.53;108890;1258;73407;-54
2023/02/18 07:32:34;;;;;;;1.40;0.80;;;;;;;6.07;100.00;98388.23;108605;1257;66772;-54
2023/02/18 07:35:03;;;;;;;1.70;0.40;;;;;;;6.02;100.00;98393.13;105303;1260;72221;-52
2023/02/18 07:37:31;;;;;;;0.90;0.50;;;;;;;5.96;100.00;98388.27;104885;1255;62609;-53
2023/02/18 07:40:03;;;;;;;0.70;0.50;;;;;;;5.92;100.00;98389.20;109042;1255;59834;-55
2023/02/18 07:42:31;;;;;;;0.70;0.50;;;;;;;5.90;100.00;98392.89;109139;1260;72026;-55
2023/02/18 07:45:06;;;;;;;0.50;0.40;;;;;;;5.88;100.00;98402.02;108087;1255;66114;-54
2023/02/18 07:47:34;;;;;;;0.60;0.40;;;;;;;5.86;100.00;98406.05;107093;1260;74085;-52
2023/02/18 07:50:03;;;;;;;1.50;0.30;;;;;;;5.81;100.00;98406.48;104972;1268;61335;-54
2023/02/18 07:52:31;;;;;;;2.20;0.40;;;;;;;5.75;100.00;98396.30;104868;1261;59497;-54
2023/02/18 07:55:00;;;;;;;0.90;0.40;;;;;;;5.66;100.00;98386.06;104861;1257;72102;-53
2023/02/18 07:57:29;;;;;;;1.10;0.30;;;;;;;5.60;100.00;98387.24;104913;1255;67692;-54
2023/02/18 07:59:57;;;;;;;0.70;0.30;;;;;;;5.57;100.00;98376.90;109058;1258;72935;-54
2023/02/18 08:02:25;;;;;;;1.20;0.30;;;;;;;5.55;100.00;98366.48;109077;1257;63180;-54
2023/02/18 08:04:53;;;;;;;1.60;0.40;;;;;;;5.53;100.00;98359.81;108915;1254;61377;-54
2023/02/18 08:07:21;;;;;;;2.40;0.70;;;;;;;5.53;100.00;98355.38;109076;1258;72079;-55
2023/02/18 08:09:49;;;;;;;2.10;0.40;;;;;;;5.55;100.00;98352.59;108899;1257;64995;-54
2023/02/18 08:12:17;;;;;;;2.60;0.40;;;;;;;5.58;100.00;98347.84;109309;1254;71607;-53
2023/02/18 08:14:45;;;;;;;1.60;0.30;;;;;;;5.63;100.00;98349.37;109207;1254;59569;-54
2023/02/18 08:17:17;;;;;;;1.60;0.30;;;;;;;5.68;100.00;98346.09;109272;1253;59177;-54
2023/02/18 08:19:45;;;;;;;1.80;0.40;;;;;;;5.75;100.00;98346.63;109338;1254;70946;-54
2023/02/18 08:22:14;;;;;;;2.40;0.40;;;;;;;5.84;100.00;98349.74;109279;1255;66844;-54
2023/02/18 08:24:42;;;;;;;1.80;0.50;;;;;;;5.92;100.00;98346.63;107444;1254;73911;-54
2023/02/18 08:27:12;;;;;;;1.30;0.50;;;;;;;6.00;100.00;98350.31;109243;1254;62139;-55
2023/02/18 08:29:40;;;;;;;2.20;0.40;;;;;;;6.06;100.00;98352.13;109198;1254;59085;-54
2023/02/18 08:32:08;;;;;;;1.60;0.40;;;;;;;6.11;100.00;98351.38;109150;1254;70806;-54
2023/02/18 08:34:36;;;;;;;2.90;0.40;;;;;;;6.15;100.00;98355.44;105723;1256;66564;-54
2023/02/18 08:37:04;;;;;;;2.10;0.40;;;;;;;6.18;100.00;98355.30;109247;1253;72172;-54
2023/02/18 08:39:35;;;;;;;2.40;0.50;;;;;;;6.20;100.00;98353.95;109214;1252;61728;-54
2023/02/18 08:42:06;;;;;;;5.30;0.50;;;;;;;6.22;100.00;98357.16;108764;1252;58966;-54
2023/02/18 08:44:35;;;;;;;4.90;0.60;;;;;;;6.25;100.00;98356.30;105215;1257;72086;-54
2023/02/18 08:47:03;;;;;;;2.40;0.50;;;;;;;6.27;100.00;98356.02;104790;1255;66147;-54
2023/02/18 08:49:52;;;;;;;2.30;0.70;;;;;;;6.30;100.00;98360.88;104864;1254;71673;-54
2023/02/18 08:52:20;;;;;;;2.60;0.70;;;;;;;6.32;100.00;98359.29;104856;1256;61922;-54
2023/02/18 08:54:48;;;;;;;1.40;0.80;;;;;;;6.36;100.00;98359.14;105013;1257;61519;-54
2023/02/18 08:57:17;;;;;;;3.70;0.90;;;;;;;6.38;100.00;98360.45;109208;1254;71995;-54
2023/02/18 08:59:45;;;;;;;2.80;1.40;;;;;;;6.38;100.00;98358.08;109142;1254;67253;-54
2023/02/18 09:02:13;;;;;;;2.20;1.00;;;;;;;6.38;100.00;98358.98;105307;1257;73868;-54
2023/02/18 09:04:42;;;;;;;3.20;0.80;;;;;;;6.37;100.00;98357.45;109200;1253;59409;-54
2023/02/18 09:07:09;;;;;;;3.30;0.80;;;;;;;6.36;100.00;98363.23;109282;1254;59508;-54
2023/02/18 09:09:37;;;;;;;3.70;0.60;;;;;;;6.31;100.00;98364.86;108585;1254;72137;-55
2023/02/18 09:12:07;;;;;;;2.00;0.70;;;;;;;6.31;100.00;98367.40;107003;1255;67280;-54
2023/02/18 09:14:35;;;;;;;2.90;0.80;;;;;;;6.33;100.00;98369.25;105900;1256;71301;-53
2023/02/18 09:17:03;;;;;;;2.40;0.80;;;;;;;6.37;100.00;98364.95;105348;1252;63357;-54
2023/02/18 09:19:31;;;;;;;1.90;0.70;;;;;;;6.41;100.00;98366.34;107368;1255;60636;-53
2023/02/18 09:21:59;;;;;;;3.10;0.80;;;;;;;6.44;100.00;98362.44;106240;1254;73546;-50
2023/02/18 09:24:27;;;;;;;2.10;0.80;;;;;;;6.48;100.00;98364.14;105445;1256;67325;-52
2023/02/18 09:26:55;;;;;;;3.50;0.80;;;;;;;6.52;100.00;98368.57;105326;1255;72724;-52
2023/02/18 09:29:23;;;;;;;1.90;0.70;;;;;;;6.55;100.00;98369.81;105350;1259;62793;-53
2023/02/18 09:31:51;;;;;;;2.70;0.70;;;;;;;6.60;100.00;98367.42;105224;1257;60715;-52
2023/02/18 09:34:19;;;;;;;2.80;0.60;;;;;;;6.65;100.00;98371.27;105305;1256;72064;-52
2023/02/18 09:36:47;;;;;;;1.80;0.50;;;;;;;6.68;100.00;98372.33;109096;1254;69200;-52
2023/02/18 09:39:16;;;;;;;1.60;0.70;;;;;;;6.70;100.00;98372.04;105687;1254;70477;-52
2023/02/18 09:42:15;;;;;;;2.40;0.50;;;;;;;6.69;100.00;98369.80;109284;1253;63437;-54
2023/02/18 09:44:48;;;;;;;2.50;0.80;;;;;;;6.67;100.00;98375.23;109010;1257;58697;-53
2023/02/18 09:47:19;;;;;;;1.70;0.60;;;;;;;6.66;100.00;98375.50;109142;1254;71077;-54
2023/02/18 09:49:52;;;;;;;1.80;0.60;;;;;;;6.64;100.00;98375.21;106448;1253;66952;-53
2023/02/18 09:52:22;;;;;;;1.70;0.60;;;;;;;6.64;100.00;98375.06;105180;1257;73871;-51
2023/02/18 09:54:50;;;;;;;2.00;0.80;;;;;;;6.63;100.00;98376.23;108373;1254;60480;-52
2023/02/18 09:57:25;;;;;;;3.70;1.30;;;;;;;6.62;100.00;98370.90;105118;1256;60031;-51
2023/02/18 09:59:59;;;;;;;5.90;1.20;;;;;;;6.61;100.00;98371.64;109207;1252;72817;-53
2023/02/18 10:02:27;;;;;;;4.60;1.00;;;;;;;6.61;100.00;98367.76;109047;1254;66205;-54
2023/02/18 10:05:01;;;;;;;3.40;0.80;;;;;;;6.60;100.00;98371.20;108337;1254;72687;-52
2023/02/18 10:07:30;;;;;;;1.30;0.40;;;;;;;6.59;100.00;98372.64;105410;1256;61494;-49
2023/02/18 10:10:01;;;;;;;1.40;0.50;;;;;;;6.59;100.00;98369.11;104934;1257;62607;-52
2023/02/18 10:12:29;;;;;;;2.60;0.60;;;;;;;6.60;100.00;98367.44;109041;1253;73736;-53
2023/02/18 10:14:58;;;;;;;1.10;0.30;;;;;;;6.64;100.00;98373.64;107203;1254;66339;-50
2023/02/18 10:17:29;;;;;;;1.00;0.40;;;;;;;6.67;100.00;98373.45;105252;1257;71214;-52
2023/02/18 10:19:57;;;;;;;1.80;0.80;;;;;;;6.71;100.00;98374.34;109010;1253;60430;-51
2023/02/18 10:22:25;;;;;;;1.90;0.40;;;;;;;6.73;100.00;98369.92;105274;1255;61175;-52
2023/02/18 10:24:58;;;;;;;1.40;0.50;;;;;;;6.75;100.00;98372.10;106249;1254;72856;-53
2023/02/18 10:27:32;;;;;;;4.70;0.50;;;;;;;6.77;100.00;98370.08;105270;1255;66920;-53
2023/02/18 10:30:33;;;;;;;1.20;0.40;;;;;;;6.76;100.00;98364.59;105487;1254;71705;-51
2023/02/18 10:33:21;;;;;;;2.80;0.40;;;;;;;6.80;100.00;98366.30;105627;1257;60482;-51
2023/02/18 10:35:56;;;;;;;0.90;0.30;;;;;;;6.89;100.00;98363.73;105237;1252;61837;-52
2023/02/18 10:38:33;;;;;;;2.60;0.40;;;;;;;7.00;100.00;98363.78;107714;1257;72421;-52
2023/02/18 10:41:33;;;;;;;1.80;0.30;;;;;;;7.14;100.00;98364.97;105439;1254;67227;-52
2023/02/18 10:44:12;;;;;;;1.60;0.30;;;;;;;7.29;100.00;98369.30;105245;1257;72358;-54
2023/02/18 10:46:56;;;;;;;1.10;0.40;;;;;;;7.39;100.00;98371.54;109275;1253;59953;-54
2023/02/18 10:49:35;;;;;;;1.90;0.40;;;;;;;7.47;100.00;98369.16;109067;1253;59817;-54
2023/02/18 10:52:04;;;;;;;1.70;0.30;;;;;;;7.48;100.00;98365.84;108983;1253;73682;-53
2023/02/18 10:54:50;;;;;;;2.70;0.30;;;;;;;7.44;100.00;98364.66;109062;1254;67205;-52
2023/02/18 10:57:22;;;;;;;3.80;0.70;;;;;;;7.36;100.00;98368.69;108408;1253;71491;-51
2023/02/18 10:59:55;;;;;;;0.80;0.20;;;;;;;7.29;100.00;98364.86;108448;1254;59402;-53
2023/02/18 11:02:25;;;;;;;1.80;0.40;;;;;;;7.23;100.00;98368.70;104852;1254;60539;-52
2023/02/18 11:04:53;;;;;;;1.80;0.50;;;;;;;7.21;100.00;98363.70;109070;1254;77581;-53
2023/02/18 11:07:22;;;;;;;2.50;0.60;;;;;;;7.21;100.00;98359.77;109201;1254;65843;-53
2023/02/18 11:10:09;;;;;;;2.90;0.50;;;;;;;7.21;100.00;98361.02;107029;1254;74343;-52
2023/02/18 11:12:45;;;;;;;1.20;0.50;;;;;;;7.19;100.00;98363.95;105096;1257;60466;-51
2023/02/18 11:15:13;;;;;;;2.90;0.60;;;;;;;7.17;100.00;98357.98;109318;1253;59401;-53
2023/02/18 11:17:45;;;;;;;4.10;0.60;;;;;;;7.16;100.00;98360.93;109299;1256;72831;-53
2023/02/18 11:20:22;;;;;;;2.90;0.50;;;;;;;7.12;100.00;98357.96;106193;1256;67121;-51
2023/02/18 11:22:50;;;;;;;4.10;0.40;;;;;;;7.09;100.00;98358.29;105212;1257;73826;-50
2023/02/18 11:25:23;;;;;;;2.20;0.30;;;;;;;7.09;100.00;98356.70;109283;1254;59565;-52
2023/02/18 11:27:54;;;;;;;1.30;0.40;;;;;;;7.09;100.00;98360.21;107362;1255;61799;-52
2023/02/18 11:30:34;;;;;;;3.80;0.80;;;;;;;7.10;100.00;98365.37;109221;1253;73099;-54